sensor_id;sensor_type;location;lat;lon;timestamp;pressure;altitude;pressure_sealevel;temperature;humidity
51178;BME280;37243;49.814;8.652;2023-02-03T00:01:28;101358.91;;;27.55;28.38
51178;BME280;37243;49.814;8.652;2023-02-03T00:03:56;101358.09;;;27.55;28.15
51178;BME280;37243;49.814;8.652;2023-02-03T00:06:25;101349.31;;;27.53;28.27
51178;BME280;37243;49.814;8.652;2023-02-03T00:08:54;101374.13;;;27.53;28.24
51178;BME280;37243;49.814;8.652;2023-02-03T00:11:29;101382.91;;;27.55;28.58
51178;BME280;37243;49.814;8.652;2023-02-03T00:13:58;101387.59;;;27.54;28.21
51178;BME280;37243;49.814;8.652;2023-02-03T00:16:26;101380.97;;;27.55;28.54
51178;BME280;37243;49.814;8.652;2023-02-03T00:18:55;101389.22;;;27.55;28.97
51178;BME280;37243;49.814;8.652;2023-02-03T00:21:23;101384.84;;;27.54;28.57
51178;BME280;37243;49.814;8.652;2023-02-03T00:23:51;101371.06;;;27.54;28.27
51178;BME280;37243;49.814;8.652;2023-02-03T00:26:19;101351.47;;;27.56;28.60
51178;BME280;37243;49.814;8.652;2023-02-03T00:28:50;101342.38;;;27.55;28.49
51178;BME280;37243;49.814;8.652;2023-02-03T00:31:20;101340.72;;;27.54;28.87
51178;BME280;37243;49.814;8.652;2023-02-03T00:33:53;101327.78;;;27.55;28.63
51178;BME280;37243;49.814;8.652;2023-02-03T00:36:22;101326.13;;;27.54;28.36
51178;BME280;37243;49.814;8.652;2023-02-03T00:38:50;101321.44;;;27.54;28.64
51178;BME280;37243;49.814;8.652;2023-02-03T00:41:19;101323.06;;;27.55;28.94
51178;BME280;37243;49.814;8.652;2023-02-03T00:43:51;101330.53;;;27.55;28.25
51178;BME280;37243;49.814;8.652;2023-02-03T00:46:19;101339.91;;;27.54;28.64
51178;BME280;37243;49.814;8.652;2023-02-03T00:48:47;101346.25;;;27.54;28.29
51178;BME280;37243;49.814;8.652;2023-02-03T00:51:15;101353.41;;;27.55;29.01
51178;BME280;37243;49.814;8.652;2023-02-03T00:53:44;101356.16;;;27.55;28.58
51178;BME280;37243;49.814;8.652;2023-02-03T00:56:12;101361.16;;;27.53;29.02
51178;BME280;37243;49.814;8.652;2023-02-03T00:58:40;101370.75;;;27.56;28.97
51178;BME280;37243;49.814;8.652;2023-02-03T01:01:11;101345.63;;;27.57;28.25
51178;BME280;37243;49.814;8.652;2023-02-03T01:03:39;101353.41;;;27.55;29.12
51178;BME280;37243;49.814;8.652;2023-02-03T01:06:10;101343.19;;;27.56;28.32
51178;BME280;37243;49.814;8.652;2023-02-03T01:08:39;101336.88;;;27.55;28.38
51178;BME280;37243;49.814;8.652;2023-02-03T01:11:08;101330.53;;;27.55;29.05
51178;BME280;37243;49.814;8.652;2023-02-03T01:13:38;101316.41;;;27.56;28.75
51178;BME280;37243;49.814;8.652;2023-02-03T01:16:06;101300.69;;;27.57;28.93
51178;BME280;37243;49.814;8.652;2023-02-03T01:18:38;101297.13;;;27.56;28.40
51178;BME280;37243;49.814;8.652;2023-02-03T01:21:07;101292.75;;;27.55;28.73
51178;BME280;37243;49.814;8.652;2023-02-03T01:23:36;101285.81;;;27.58;28.50
51178;BME280;37243;49.814;8.652;2023-02-03T01:26:06;101287.25;;;27.55;28.51
51178;BME280;37243;49.814;8.652;2023-02-03T01:28:35;101282.84;;;27.54;29.04
51178;BME280;37243;49.814;8.652;2023-02-03T01:31:09;101298.28;;;27.55;28.85
51178;BME280;37243;49.814;8.652;2023-02-03T01:33:40;101310.91;;;27.56;28.43
51178;BME280;37243;49.814;8.652;2023-02-03T01:36:12;101320.31;;;27.55;29.07
51178;BME280;37243;49.814;8.652;2023-02-03T01:38:40;101298.75;;;27.57;28.42
51178;BME280;37243;49.814;8.652;2023-02-03T01:41:12;101292.44;;;27.57;28.98
51178;BME280;37243;49.814;8.652;2023-02-03T01:43:42;101288.06;;;27.56;28.34
51178;BME280;37243;49.814;8.652;2023-02-03T01:46:25;101291.13;;;27.54;28.75
51178;BME280;37243;49.814;8.652;2023-02-03T01:49:02;101293.59;;;27.56;28.45
51178;BME280;37243;49.814;8.652;2023-02-03T01:51:34;101289.19;;;27.55;29.08
51178;BME280;37243;49.814;8.652;2023-02-03T01:54:03;101289.69;;;27.57;28.77
51178;BME280;37243;49.814;8.652;2023-02-03T01:56:35;101274.78;;;27.58;29.05
51178;BME280;37243;49.814;8.652;2023-02-03T01:59:05;101271.81;;;27.54;28.42
51178;BME280;37243;49.814;8.652;2023-02-03T02:01:34;101275.41;;;27.55;28.79
51178;BME280;37243;49.814;8.652;2023-02-03T02:04:07;101272.31;;;27.56;28.77
51178;BME280;37243;49.814;8.652;2023-02-03T02:06:35;101264.56;;;27.58;29.09
51178;BME280;37243;49.814;8.652;2023-02-03T02:09:04;101262.94;;;27.57;29.24
51178;BME280;37243;49.814;8.652;2023-02-03T02:11:33;101262.59;;;27.59;29.00
51178;BME280;37243;49.814;8.652;2023-02-03T02:14:02;101251.28;;;27.60;28.68
51178;BME280;37243;49.814;8.652;2023-02-03T02:16:40;101252.41;;;27.59;28.77
51178;BME280;37243;49.814;8.652;2023-02-03T02:19:39;101268.13;;;27.59;28.46
51178;BME280;37243;49.814;8.652;2023-02-03T02:22:17;101253.84;;;27.57;28.80
51178;BME280;37243;49.814;8.652;2023-02-03T02:25:01;101255.47;;;27.58;29.17
51178;BME280;37243;49.814;8.652;2023-02-03T02:27:49;101240.25;;;27.60;29.22
51178;BME280;37243;49.814;8.652;2023-02-03T02:30:56;101242.53;;;27.58;29.04
51178;BME280;37243;49.814;8.652;2023-02-03T02:33:40;101249.16;;;27.57;28.87
51178;BME280;37243;49.814;8.652;2023-02-03T02:36:19;101254.34;;;27.59;28.71
51178;BME280;37243;49.814;8.652;2023-02-03T02:38:57;101274.78;;;27.58;29.09
51178;BME280;37243;49.814;8.652;2023-02-03T02:41:30;101274.16;;;27.61;28.36
51178;BME280;37243;49.814;8.652;2023-02-03T02:44:07;101284.34;;;27.60;28.51
51178;BME280;37243;49.814;8.652;2023-02-03T02:46:39;101294.88;;;27.58;29.22
51178;BME280;37243;49.814;8.652;2023-02-03T02:49:16;101284.66;;;27.59;29.13
51178;BME280;37243;49.814;8.652;2023-02-03T02:51:47;101286.63;;;27.58;28.94
51178;BME280;37243;49.814;8.652;2023-02-03T02:54:19;101280.78;;;27.60;28.54
51178;BME280;37243;49.814;8.652;2023-02-03T02:56:52;101289.88;;;27.60;29.23
51178;BME280;37243;49.814;8.652;2023-02-03T02:59:21;101294.25;;;27.62;29.14
51178;BME280;37243;49.814;8.652;2023-02-03T03:01:50;101302.53;;;27.62;28.83
51178;BME280;37243;49.814;8.652;2023-02-03T03:04:23;101299.44;;;27.63;29.02
51178;BME280;37243;49.814;8.652;2023-02-03T03:06:55;101302.84;;;27.60;28.89
51178;BME280;37243;49.814;8.652;2023-02-03T03:09:27;101300.91;;;27.60;29.24
51178;BME280;37243;49.814;8.652;2023-02-03T03:12:05;101314.19;;;27.58;28.89
51178;BME280;37243;49.814;8.652;2023-02-03T03:14:38;101310.28;;;27.59;29.14
51178;BME280;37243;49.814;8.652;2023-02-03T03:17:11;101316.63;;;27.60;28.86
51178;BME280;37243;49.814;8.652;2023-02-03T03:19:47;101306.41;;;27.60;29.28
51178;BME280;37243;49.814;8.652;2023-02-03T03:22:21;101300.91;;;27.60;29.26
51178;BME280;37243;49.814;8.652;2023-02-03T03:24:54;101290.16;;;27.59;28.68
51178;BME280;37243;49.814;8.652;2023-02-03T03:27:28;101293.94;;;27.63;28.84
51178;BME280;37243;49.814;8.652;2023-02-03T03:30:01;101292.63;;;27.60;28.92
51178;BME280;37243;49.814;8.652;2023-02-03T03:32:32;101303.94;;;27.59;29.13
51178;BME280;37243;49.814;8.652;2023-02-03T03:35:04;101306.91;;;27.63;28.92
51178;BME280;37243;49.814;8.652;2023-02-03T03:37:34;101296.50;;;27.59;28.96
51178;BME280;37243;49.814;8.652;2023-02-03T03:40:08;101291.00;;;27.59;29.14
51178;BME280;37243;49.814;8.652;2023-02-03T03:42:40;101287.94;;;27.61;29.01
51178;BME280;37243;49.814;8.652;2023-02-03T03:45:15;101303.31;;;27.62;29.32
51178;BME280;37243;49.814;8.652;2023-02-03T03:47:48;101296.19;;;27.61;28.65
51178;BME280;37243;49.814;8.652;2023-02-03T03:50:26;101287.94;;;27.61;28.92
51178;BME280;37243;49.814;8.652;2023-02-03T03:52:57;101269.47;;;27.62;29.24
51178;BME280;37243;49.814;8.652;2023-02-03T03:55:28;101274.44;;;27.59;29.35
51178;BME280;37243;49.814;8.652;2023-02-03T03:58:00;101263.13;;;27.61;29.26
51178;BME280;37243;49.814;8.652;2023-02-03T04:00:32;101269.47;;;27.62;29.28
51178;BME280;37243;49.814;8.652;2023-02-03T04:03:06;101268.31;;;27.63;28.62
51178;BME280;37243;49.814;8.652;2023-02-03T04:05:40;101270.88;;;27.59;29.04
51178;BME280;37243;49.814;8.652;2023-02-03T04:08:08;101287.41;;;27.59;29.13
51178;BME280;37243;49.814;8.652;2023-02-03T04:10:39;101282.72;;;27.59;29.30
51178;BME280;37243;49.814;8.652;2023-02-03T04:13:09;101263.41;;;27.59;28.83
51178;BME280;37243;49.814;8.652;2023-02-03T04:15:40;101262.31;;;27.60;29.00
51178;BME280;37243;49.814;8.652;2023-02-03T04:18:09;101266.19;;;27.59;29.31
51178;BME280;37243;49.814;8.652;2023-02-03T04:20:41;101260.03;;;27.63;28.95
51178;BME280;37243;49.814;8.652;2023-02-03T04:23:10;101248.81;;;27.59;29.08
51178;BME280;37243;49.814;8.652;2023-02-03T04:25:38;101252.91;;;27.62;29.25
51178;BME280;37243;49.814;8.652;2023-02-03T04:28:06;101262.31;;;27.60;29.02
51178;BME280;37243;49.814;8.652;2023-02-03T04:30:35;101263.13;;;27.61;29.41
51178;BME280;37243;49.814;8.652;2023-02-03T04:33:03;101261.69;;;27.64;28.97
51178;BME280;37243;49.814;8.652;2023-02-03T04:35:31;101271.88;;;27.63;29.03
51178;BME280;37243;49.814;8.652;2023-02-03T04:38:02;101273.81;;;27.63;28.99
51178;BME280;37243;49.814;8.652;2023-02-03T04:40:30;101274.97;;;27.62;28.65
51178;BME280;37243;49.814;8.652;2023-02-03T04:43:04;101271.06;;;27.63;28.77
51178;BME280;37243;49.814;8.652;2023-02-03T04:45:33;101263.63;;;27.63;28.66
51178;BME280;37243;49.814;8.652;2023-02-03T04:48:01;101243.31;;;27.59;29.53
51178;BME280;37243;49.814;8.652;2023-02-03T04:50:30;101226.97;;;27.63;29.43
51178;BME280;37243;49.814;8.652;2023-02-03T04:52:58;101228.09;;;27.62;28.77
51178;BME280;37243;49.814;8.652;2023-02-03T04:55:29;101245.75;;;27.60;28.86
51178;BME280;37243;49.814;8.652;2023-02-03T04:57:58;101262.50;;;27.64;29.18
51178;BME280;37243;49.814;8.652;2023-02-03T05:00:27;101259.75;;;27.64;29.03
51178;BME280;37243;49.814;8.652;2023-02-03T05:02:55;101273.53;;;27.64;29.17
51178;BME280;37243;49.814;8.652;2023-02-03T05:05:24;101287.59;;;27.63;29.49
51178;BME280;37243;49.814;8.652;2023-02-03T05:07:52;101286.00;;;27.62;29.21
51178;BME280;37243;49.814;8.652;2023-02-03T05:10:20;101293.13;;;27.63;29.38
51178;BME280;37243;49.814;8.652;2023-02-03T05:12:51;101290.88;;;27.65;29.15
51178;BME280;37243;49.814;8.652;2023-02-03T05:15:19;101296.41;;;27.65;28.87
51178;BME280;37243;49.814;8.652;2023-02-03T05:17:50;101284.84;;;27.63;29.41
51178;BME280;37243;49.814;8.652;2023-02-03T05:20:19;101296.41;;;27.65;29.03
51178;BME280;37243;49.814;8.652;2023-02-03T05:22:47;101278.22;;;27.64;29.18
51178;BME280;37243;49.814;8.652;2023-02-03T05:25:16;101270.44;;;27.66;29.55
51178;BME280;37243;49.814;8.652;2023-02-03T05:27:44;101274.34;;;27.65;29.22
51178;BME280;37243;49.814;8.652;2023-02-03T05:30:15;101253.41;;;27.64;29.20
51178;BME280;37243;49.814;8.652;2023-02-03T05:32:43;101261.69;;;27.64;29.21
51178;BME280;37243;49.814;8.652;2023-02-03T05:35:11;101237.16;;;27.62;29.41
51178;BME280;37243;49.814;8.652;2023-02-03T05:37:40;101240.13;;;27.66;29.29
51178;BME280;37243;49.814;8.652;2023-02-03T05:40:11;101252.28;;;27.65;29.04
51178;BME280;37243;49.814;8.652;2023-02-03T05:42:52;101249.00;;;27.63;28.81
51178;BME280;37243;49.814;8.652;2023-02-03T05:45:23;101264.44;;;27.64;29.42
51178;BME280;37243;49.814;8.652;2023-02-03T05:47:51;101250.66;;;27.64;29.49
51178;BME280;37243;49.814;8.652;2023-02-03T05:50:19;101241.25;;;27.65;29.54
51178;BME280;37243;49.814;8.652;2023-02-03T05:52:48;101227.47;;;27.65;28.84
51178;BME280;37243;49.814;8.652;2023-02-03T05:55:16;101234.59;;;27.66;29.47
51178;BME280;37243;49.814;8.652;2023-02-03T05:57:45;101211.44;;;27.67;28.74
51178;BME280;37243;49.814;8.652;2023-02-03T06:00:14;101210.13;;;27.64;29.43
51178;BME280;37243;49.814;8.652;2023-02-03T06:02:45;101219.22;;;27.65;29.09
51178;BME280;37243;49.814;8.652;2023-02-03T06:05:13;101225.50;;;27.65;29.07
51178;BME280;37243;49.814;8.652;2023-02-03T06:07:41;101223.56;;;27.66;28.85
51178;BME280;37243;49.814;8.652;2023-02-03T06:10:09;101223.91;;;27.64;29.19
51178;BME280;37243;49.814;8.652;2023-02-03T06:12:38;101227.47;;;27.65;29.08
51178;BME280;37243;49.814;8.652;2023-02-03T06:15:07;101225.03;;;27.63;29.14
51178;BME280;37243;49.814;8.652;2023-02-03T06:17:36;101220.31;;;27.64;29.40
51178;BME280;37243;49.814;8.652;2023-02-03T06:20:09;101214.47;;;27.65;28.83
51178;BME280;37243;49.814;8.652;2023-02-03T06:22:38;101215.63;;;27.64;29.15
51178;BME280;37243;49.814;8.652;2023-02-03T06:25:07;101210.94;;;27.65;29.39
51178;BME280;37243;49.814;8.652;2023-02-03T06:27:35;101219.22;;;27.65;29.09
51178;BME280;37243;49.814;8.652;2023-02-03T06:30:05;101220.81;;;27.66;28.77
51178;BME280;37243;49.814;8.652;2023-02-03T06:32:33;101228.91;;;27.62;29.51
51178;BME280;37243;49.814;8.652;2023-02-03T06:35:02;101225.03;;;27.63;28.77
51178;BME280;37243;49.814;8.652;2023-02-03T06:37:33;101228.59;;;27.64;28.92
51178;BME280;37243;49.814;8.652;2023-02-03T06:40:03;101224.72;;;27.65;29.11
51178;BME280;37243;49.814;8.652;2023-02-03T06:42:32;101219.22;;;27.65;28.72
51178;BME280;37243;49.814;8.652;2023-02-03T06:45:00;101223.09;;;27.64;29.06
51178;BME280;37243;49.814;8.652;2023-02-03T06:47:28;101223.38;;;27.62;29.07
51178;BME280;37243;49.814;8.652;2023-02-03T06:49:57;101233.63;;;27.62;29.31
51178;BME280;37243;49.814;8.652;2023-02-03T06:52:28;101224.84;;;27.59;29.21
51178;BME280;37243;49.814;8.652;2023-02-03T06:54:59;101236.38;;;27.62;28.87
51178;BME280;37243;49.814;8.652;2023-02-03T06:57:27;101239.13;;;27.62;29.40
51178;BME280;37243;49.814;8.652;2023-02-03T06:59:55;101244.94;;;27.60;29.33
51178;BME280;37243;49.814;8.652;2023-02-03T07:02:23;101255.16;;;27.59;29.59
51178;BME280;37243;49.814;8.652;2023-02-03T07:04:52;101270.09;;;27.58;29.57
51178;BME280;37243;49.814;8.652;2023-02-03T07:07:20;101274.97;;;27.62;29.16
51178;BME280;37243;49.814;8.652;2023-02-03T07:09:48;101278.84;;;27.60;28.79
51178;BME280;37243;49.814;8.652;2023-02-03T07:12:19;101276.09;;;27.60;29.24
51178;BME280;37243;49.814;8.652;2023-02-03T07:14:47;101277.22;;;27.59;29.23
51178;BME280;37243;49.814;8.652;2023-02-03T07:17:15;101274.44;;;27.59;28.84
51178;BME280;37243;49.814;8.652;2023-02-03T07:19:44;101269.47;;;27.62;29.20
51178;BME280;37243;49.814;8.652;2023-02-03T07:22:12;101264.72;;;27.62;29.16
51178;BME280;37243;49.814;8.652;2023-02-03T07:24:40;101282.09;;;27.63;29.50
51178;BME280;37243;49.814;8.652;2023-02-03T07:27:08;101297.81;;;27.62;29.56
51178;BME280;37243;49.814;8.652;2023-02-03T07:29:39;101288.75;;;27.62;29.53
51178;BME280;37243;49.814;8.652;2023-02-03T07:32:08;101290.69;;;27.61;29.17
51178;BME280;37243;49.814;8.652;2023-02-03T07:34:36;101290.34;;;27.63;29.06
51178;BME280;37243;49.814;8.652;2023-02-03T07:37:04;101290.06;;;27.64;28.90
51178;BME280;37243;49.814;8.652;2023-02-03T07:39:32;101277.09;;;27.65;29.61
51178;BME280;37243;49.814;8.652;2023-02-03T07:42:01;101272.69;;;27.64;29.28
51178;BME280;37243;49.814;8.652;2023-02-03T07:44:30;101248.38;;;27.66;28.91
51178;BME280;37243;49.814;8.652;2023-02-03T07:47:01;101244.50;;;27.67;29.18
51178;BME280;37243;49.814;8.652;2023-02-03T07:49:31;101258.28;;;27.67;29.40
51178;BME280;37243;49.814;8.652;2023-02-03T07:52:00;101269.81;;;27.69;28.85
51178;BME280;37243;49.814;8.652;2023-02-03T07:54:28;101273.88;;;27.71;29.08
51178;BME280;37243;49.814;8.652;2023-02-03T07:57:01;101263.66;;;27.72;28.95
51178;BME280;37243;49.814;8.652;2023-02-03T07:59:29;101275.19;;;27.74;29.03
51178;BME280;37243;49.814;8.652;2023-02-03T08:01:58;101269.38;;;27.75;29.33
51178;BME280;37243;49.814;8.652;2023-02-03T08:04:28;101250.88;;;27.76;28.80
51178;BME280;37243;49.814;8.652;2023-02-03T08:06:57;101263.03;;;27.75;29.08
51178;BME280;37243;49.814;8.652;2023-02-03T08:09:25;101267.09;;;27.77;29.15
51178;BME280;37243;49.814;8.652;2023-02-03T08:11:53;101270.19;;;27.76;28.77
51178;BME280;37243;49.814;8.652;2023-02-03T08:14:22;101297.44;;;27.77;29.53
51178;BME280;37243;49.814;8.652;2023-02-03T08:16:50;101284.47;;;27.78;28.96
51178;BME280;37243;49.814;8.652;2023-02-03T08:19:21;101271.16;;;27.80;29.13
51178;BME280;37243;49.814;8.652;2023-02-03T08:21:52;101273.44;;;27.78;28.83
51178;BME280;37243;49.814;8.652;2023-02-03T08:24:21;101275.72;;;27.76;29.30
51178;BME280;37243;49.814;8.652;2023-02-03T08:26:49;101262.22;;;27.74;29.58
51178;BME280;37243;49.814;8.652;2023-02-03T08:29:18;101269.03;;;27.77;29.01
51178;BME280;37243;49.814;8.652;2023-02-03T08:31:47;101268.25;;;27.76;28.88
51178;BME280;37243;49.814;8.652;2023-02-03T08:34:15;101258.34;;;27.75;29.11
51178;BME280;37243;49.814;8.652;2023-02-03T08:36:43;101259.47;;;27.74;28.99
51178;BME280;37243;49.814;8.652;2023-02-03T08:39:16;101260.28;;;27.75;29.16
51178;BME280;37243;49.814;8.652;2023-02-03T08:41:45;101261.41;;;27.74;29.16
51178;BME280;37243;49.814;8.652;2023-02-03T08:44:13;101253.94;;;27.74;28.88
51178;BME280;37243;49.814;8.652;2023-02-03T08:46:42;101257.53;;;27.75;29.34
51178;BME280;37243;49.814;8.652;2023-02-03T08:49:14;101264.97;;;27.74;29.33
51178;BME280;37243;49.814;8.652;2023-02-03T08:51:43;101256.22;;;27.72;29.65
51178;BME280;37243;49.814;8.652;2023-02-03T08:54:12;101257.03;;;27.73;29.25
51178;BME280;37243;49.814;8.652;2023-02-03T08:56:43;101253.47;;;27.72;29.35
51178;BME280;37243;49.814;8.652;2023-02-03T08:59:12;101261.25;;;27.70;29.18
51178;BME280;37243;49.814;8.652;2023-02-03T09:01:43;101258.78;;;27.69;29.01
51178;BME280;37243;49.814;8.652;2023-02-03T09:04:13;101271.44;;;27.70;29.15
51178;BME280;37243;49.814;8.652;2023-02-03T09:06:43;101271.44;;;27.70;29.73
51178;BME280;37243;49.814;8.652;2023-02-03T09:09:12;101276.97;;;27.70;29.14
51178;BME280;37243;49.814;8.652;2023-02-03T09:11:43;101280.84;;;27.69;29.37
51178;BME280;37243;49.814;8.652;2023-02-03T09:14:11;101282.28;;;27.66;29.19
51178;BME280;37243;49.814;8.652;2023-02-03T09:16:39;101286.34;;;27.69;29.01
51178;BME280;37243;49.814;8.652;2023-02-03T09:19:08;101282.78;;;27.68;29.37
51178;BME280;37243;49.814;8.652;2023-02-03T09:21:37;101274.50;;;27.68;29.68
51178;BME280;37243;49.814;8.652;2023-02-03T09:24:06;101268.19;;;27.68;29.49
51178;BME280;37243;49.814;8.652;2023-02-03T09:26:35;101269.81;;;27.69;29.12
51178;BME280;37243;49.814;8.652;2023-02-03T09:29:05;101258.78;;;27.69;29.37
51178;BME280;37243;49.814;8.652;2023-02-03T09:31:34;101266.56;;;27.67;29.05
51178;BME280;37243;49.814;8.652;2023-02-03T09:34:02;101249.19;;;27.66;29.88
51178;BME280;37243;49.814;8.652;2023-02-03T09:36:30;101250.03;;;27.67;29.82
51178;BME280;37243;49.814;8.652;2023-02-03T09:38:59;101270.44;;;27.66;29.27
51178;BME280;37243;49.814;8.652;2023-02-03T09:41:43;101276.78;;;27.66;29.62
51178;BME280;37243;49.814;8.652;2023-02-03T09:44:22;101273.72;;;27.68;29.13
51178;BME280;37243;49.814;8.652;2023-02-03T09:46:55;101281.47;;;27.66;29.19
51178;BME280;37243;49.814;8.652;2023-02-03T09:49:28;101277.41;;;27.63;29.84
51178;BME280;37243;49.814;8.652;2023-02-03T09:52:06;101282.28;;;27.66;29.65
51178;BME280;37243;49.814;8.652;2023-02-03T09:54:41;101280.34;;;27.67;29.64
51178;BME280;37243;49.814;8.652;2023-02-03T09:57:17;101285.84;;;27.67;29.12
51178;BME280;37243;49.814;8.652;2023-02-03T09:59:49;101279.53;;;27.66;29.14
51178;BME280;37243;49.814;8.652;2023-02-03T10:02:25;101283.72;;;27.64;29.89
51178;BME280;37243;49.814;8.652;2023-02-03T10:05:02;101265.56;;;27.63;29.30
51178;BME280;37243;49.814;8.652;2023-02-03T10:07:40;101271.59;;;27.65;29.50
51178;BME280;37243;49.814;8.652;2023-02-03T10:10:15;101268.00;;;27.64;29.69
51178;BME280;37243;49.814;8.652;2023-02-03T10:12:59;101263.31;;;27.65;29.11
51178;BME280;37243;49.814;8.652;2023-02-03T10:18:59;101273.81;;;27.63;29.85
51178;BME280;37243;49.814;8.652;2023-02-03T10:21:34;101278.22;;;27.64;29.50
51178;BME280;37243;49.814;8.652;2023-02-03T10:24:08;101282.63;;;27.65;29.69
51178;BME280;37243;49.814;8.652;2023-02-03T10:26:38;101273.19;;;27.66;29.42
51178;BME280;37243;49.814;8.652;2023-02-03T10:29:17;101251.78;;;27.63;29.19
51178;BME280;37243;49.814;8.652;2023-02-03T10:31:46;101239.28;;;27.65;29.22
51178;BME280;37243;49.814;8.652;2023-02-03T10:34:17;101233.47;;;27.67;29.49
51178;BME280;37243;49.814;8.652;2023-02-03T10:36:54;101227.47;;;27.65;29.86
51178;BME280;37243;49.814;8.652;2023-02-03T10:39:28;101233.00;;;27.65;29.20
51178;BME280;37243;49.814;8.652;2023-02-03T10:41:58;101220.81;;;27.66;29.31
51178;BME280;37243;49.814;8.652;2023-02-03T10:44:34;101222.44;;;27.67;29.20
51178;BME280;37243;49.814;8.652;2023-02-03T10:47:22;101222.75;;;27.65;29.46
51178;BME280;37243;49.814;8.652;2023-02-03T10:49:56;101227.78;;;27.63;29.87
51178;BME280;37243;49.814;8.652;2023-02-03T10:52:30;101230.22;;;27.65;29.60
51178;BME280;37243;49.814;8.652;2023-02-03T10:54:59;101237.34;;;27.66;29.14
51178;BME280;37243;49.814;8.652;2023-02-03T10:57:34;101222.44;;;27.67;29.55
51178;BME280;37243;49.814;8.652;2023-02-03T11:00:07;101212.53;;;27.66;29.78
51178;BME280;37243;49.814;8.652;2023-02-03T11:02:35;101213.69;;;27.65;29.77
51178;BME280;37243;49.814;8.652;2023-02-03T11:05:18;101220.81;;;27.66;29.96
51178;BME280;37243;49.814;8.652;2023-02-03T11:07:49;101225.22;;;27.67;29.28
51178;BME280;37243;49.814;8.652;2023-02-03T11:10:26;101230.72;;;27.67;29.48
51178;BME280;37243;49.814;8.652;2023-02-03T11:13:10;101228.25;;;27.65;29.19
51178;BME280;37243;49.814;8.652;2023-02-03T11:15:43;101230.72;;;27.67;29.19
51178;BME280;37243;49.814;8.652;2023-02-03T11:18:36;101242.38;;;27.64;29.28
51178;BME280;37243;49.814;8.652;2023-02-03T11:21:12;101238.50;;;27.65;29.13
51178;BME280;37243;49.814;8.652;2023-02-03T11:23:46;101246.78;;;27.65;29.40
51178;BME280;37243;49.814;8.652;2023-02-03T11:26:19;101248.72;;;27.64;29.78
51178;BME280;37243;49.814;8.652;2023-02-03T11:28:50;101233.78;;;27.65;29.58
51178;BME280;37243;49.814;8.652;2023-02-03T11:31:22;101222.25;;;27.63;29.60
51178;BME280;37243;49.814;8.652;2023-02-03T11:33:54;101215.44;;;27.60;29.75
51178;BME280;37243;49.814;8.652;2023-02-03T11:36:34;101200.22;;;27.63;29.76
51178;BME280;37243;49.814;8.652;2023-02-03T11:39:13;101199.41;;;27.63;29.30
51178;BME280;37243;49.814;8.652;2023-02-03T11:41:44;101199.41;;;27.63;29.70
51178;BME280;37243;49.814;8.652;2023-02-03T11:44:18;101198.28;;;27.64;29.38
51178;BME280;37243;49.814;8.652;2023-02-03T11:46:50;101185.94;;;27.61;29.28
51178;BME280;37243;49.814;8.652;2023-02-03T11:52:38;101189.19;;;27.63;29.93
51178;BME280;37243;49.814;8.652;2023-02-03T11:55:24;101183.38;;;27.65;29.89
51178;BME280;37243;49.814;8.652;2023-02-03T11:58:07;101173.75;;;27.62;29.86
51178;BME280;37243;49.814;8.652;2023-02-03T12:00:46;101179.59;;;27.60;29.69
51178;BME280;37243;49.814;8.652;2023-02-03T12:03:38;101179.28;;;27.62;29.97
51178;BME280;37243;49.814;8.652;2023-02-03T12:06:19;101209.31;;;27.64;29.68
51178;BME280;37243;49.814;8.652;2023-02-03T12:09:08;101203.31;;;27.62;29.84
51178;BME280;37243;49.814;8.652;2023-02-03T12:12:00;101190.63;;;27.60;29.93
51178;BME280;37243;49.814;8.652;2023-02-03T12:14:46;101190.63;;;27.60;29.57
51178;BME280;37243;49.814;8.652;2023-02-03T12:17:29;101195.81;;;27.62;29.32
51178;BME280;37243;49.814;8.652;2023-02-03T12:20:10;101188.38;;;27.63;29.24
51178;BME280;37243;49.814;8.652;2023-02-03T12:22:48;101182.03;;;27.62;29.65
51178;BME280;37243;49.814;8.652;2023-02-03T12:25:36;101172.47;;;27.59;29.68
51178;BME280;37243;49.814;8.652;2023-02-03T12:28:16;101175.72;;;27.62;29.39
51178;BME280;37243;49.814;8.652;2023-02-03T12:30:50;101175.72;;;27.62;29.62
51178;BME280;37243;49.814;8.652;2023-02-03T12:33:25;101158.88;;;27.63;30.04
51178;BME280;37243;49.814;8.652;2023-02-03T12:35:58;101159.69;;;27.64;29.86
51178;BME280;37243;49.814;8.652;2023-02-03T12:38:38;101148.94;;;27.62;29.24
51178;BME280;37243;49.814;8.652;2023-02-03T12:41:15;101131.63;;;27.62;29.63
51178;BME280;37243;49.814;8.652;2023-02-03T12:43:46;101116.69;;;27.63;29.99
51178;BME280;37243;49.814;8.652;2023-02-03T12:46:19;101110.88;;;27.64;29.73
51178;BME280;37243;49.814;8.652;2023-02-03T12:48:55;101115.25;;;27.65;29.70
51178;BME280;37243;49.814;8.652;2023-02-03T12:51:32;101112.81;;;27.64;29.24
51178;BME280;37243;49.814;8.652;2023-02-03T12:54:07;101116.22;;;27.60;29.43
51178;BME280;37243;49.814;8.652;2023-02-03T12:56:43;101125.28;;;27.61;30.04
51178;BME280;37243;49.814;8.652;2023-02-03T12:59:16;101113.63;;;27.64;29.91
51178;BME280;37243;49.814;8.652;2023-02-03T13:01:50;101121.38;;;27.62;30.02
51178;BME280;37243;49.814;8.652;2023-02-03T13:04:26;101128.25;;;27.65;29.56
51178;BME280;37243;49.814;8.652;2023-02-03T13:07:03;101134.06;;;27.63;29.85
51178;BME280;37243;49.814;8.652;2023-02-03T13:09:37;101130.19;;;27.64;29.45
51178;BME280;37243;49.814;8.652;2023-02-03T13:12:15;101127.72;;;27.63;29.29
51178;BME280;37243;49.814;8.652;2023-02-03T13:14:48;101124.66;;;27.64;29.71
51178;BME280;37243;49.814;8.652;2023-02-03T13:17:22;101127.72;;;27.63;29.98
51178;BME280;37243;49.814;8.652;2023-02-03T13:19:55;101135.69;;;27.64;29.74
51178;BME280;37243;49.814;8.652;2023-02-03T13:22:25;101128.53;;;27.63;29.93